Maersk Vallvik — 9V8839 — position and weather

sailwx.info

Track history (hours):
 
Tides and Currents Weather Stations Pressure Air Temp Water Temp Dewpoint Dewpoint Depression Visibility Wind Speed Wind Dir Waves Ship Positions

Maersk Vallvik

Last reported at 2016-Sep-15 12:28 UTC. Time now 2016-Sep-30 08:23 UTC.
Position S 33°52' E 018°26'.
Warning: this ship's position is 14 days out of date.

Length 180 m; draft 10.6 m.

Type: Ship (hazmat cat A). MMSI: 564837000.

Date/timePositionNaut miles runAvg speedWind from/ knotsBaromVisibWave heightAir tempDewpointWater temp
2016-Sep-15 12:28S 33°52' E 018°26'0 0.0
2016-Sep-15 11:28S 33°52' E 018°26'2 0.3
2016-Sep-15 04:33S 33°51' E 018°24'4 3.6
2016-Sep-15 03:33S 33°55' E 018°26'0 0.0
2016-Sep-15 01:33S 33°55' E 018°26'0 0.0
2016-Sep-14 22:33S 33°55' E 018°26'0 0.0
2016-Sep-14 21:33S 33°55' E 018°26'0 0.0
2016-Sep-14 17:33S 33°55' E 018°26'0 0.0
2016-Sep-14 16:33S 33°55' E 018°26'0 0.0
2016-Sep-14 13:33S 33°55' E 018°26'0 0.0
2016-Sep-14 12:33S 33°55' E 018°26'0 0.0
2016-Sep-14 10:33S 33°55' E 018°26'0 0.0
2016-Sep-14 09:33S 33°55' E 018°26'0 0.0
2016-Sep-14 08:33S 33°55' E 018°26'0 0.0
2016-Sep-14 07:33S 33°55' E 018°26'0 0.0
2016-Sep-14 06:33S 33°55' E 018°26'0 0.0
2016-Sep-14 03:33S 33°55' E 018°26'0 0.0
2016-Sep-13 22:33S 33°55' E 018°26'0 0.0
2016-Sep-13 20:33S 33°55' E 018°26'0 0.0
2016-Sep-13 18:33S 33°55' E 018°26'0 0.0
2016-Sep-13 17:33S 33°55' E 018°26'0 0.0
2016-Sep-13 16:33S 33°55' E 018°26'2 0.5
2016-Sep-13 11:34S 33°52' E 018°25'67215.6
2016-Sep-11 16:33S 30°16' E 030°57'1817.9
2016-Sep-11 15:33S 30°01' E 031°07'9 9.3
2016-Sep-11 14:33S 29°52' E 031°03'1 0.8
2016-Sep-11 13:32S 29°52' E 031°02'0 0.0
2016-Sep-11 12:32S 29°52' E 031°02'0 0.0
2016-Sep-11 11:32S 29°52' E 031°02'0 0.0
2016-Sep-11 10:32S 29°52' E 031°02'0 0.0
2016-Sep-11 08:32S 29°52' E 031°02'0 0.0
2016-Sep-11 07:32S 29°52' E 031°02'0 0.0
2016-Sep-11 03:32S 29°52' E 031°02'0 0.0
2016-Sep-11 02:32S 29°52' E 031°02'0 0.0
2016-Sep-11 01:32S 29°52' E 031°02'0 0.0
2016-Sep-11 00:32S 29°52' E 031°02'0 0.0
2016-Sep-10 23:32S 29°52' E 031°02'0 0.0
2016-Sep-10 22:32S 29°52' E 031°02'0 0.0
2016-Sep-10 21:32S 29°52' E 031°02'0 0.0
2016-Sep-10 20:32S 29°52' E 031°02'0 0.0
2016-Sep-10 19:32S 29°52' E 031°02'0 0.0
2016-Sep-10 18:32S 29°52' E 031°02'0 0.0
2016-Sep-10 17:32S 29°52' E 031°02'0 0.0
2016-Sep-10 16:32S 29°52' E 031°02'0 0.0
2016-Sep-10 15:32S 29°52' E 031°02'0 0.0
2016-Sep-10 14:32S 29°52' E 031°02'0 0.0
2016-Sep-10 13:32S 29°52' E 031°02'0 0.0
2016-Sep-10 12:32S 29°52' E 031°02'0 0.0
2016-Sep-10 11:32S 29°52' E 031°02'0 0.0
2016-Sep-10 10:29S 29°52' E 031°02'0 0.0
2016-Sep-10 09:32S 29°52' E 031°02'0 0.0
2016-Sep-10 08:32S 29°52' E 031°02'0 0.0
2016-Sep-10 07:32S 29°52' E 031°02'0 0.0
2016-Sep-10 06:32S 29°52' E 031°02'0 0.0
2016-Sep-10 05:32S 29°52' E 031°02'0 0.0
2016-Sep-10 04:32S 29°52' E 031°02'0 0.0
2016-Sep-10 03:32S 29°52' E 031°02'0 0.0
2016-Sep-10 02:32S 29°52' E 031°02'0 0.0
2016-Sep-10 01:32S 29°52' E 031°02'0 0.0
2016-Sep-10 00:32S 29°52' E 031°02'0 0.0
2016-Sep-09 23:32S 29°52' E 031°02'0 0.0
2016-Sep-09 22:32S 29°52' E 031°02'0 0.0
2016-Sep-09 21:32S 29°52' E 031°02'0 0.0
2016-Sep-09 20:32S 29°52' E 031°02'0 0.0
2016-Sep-09 19:32S 29°52' E 031°02'0 0.0
2016-Sep-09 18:32S 29°52' E 031°02'0 0.0
2016-Sep-09 17:32S 29°52' E 031°02'0 0.0
2016-Sep-09 16:32S 29°52' E 031°02'0 0.0
2016-Sep-09 15:32S 29°52' E 031°02'0 0.0
2016-Sep-09 14:32S 29°52' E 031°02'0 0.0
2016-Sep-09 13:32S 29°52' E 031°02'0 0.0
2016-Sep-09 12:32S 29°52' E 031°02'0 0.0
2016-Sep-09 11:29S 29°52' E 031°02'0 0.0
2016-Sep-09 10:32S 29°52' E 031°02'0 0.0
2016-Sep-09 09:32S 29°52' E 031°02'0 0.0
2016-Sep-09 08:32S 29°52' E 031°02'0 0.0
2016-Sep-09 07:32S 29°52' E 031°02'0 0.0
2016-Sep-09 06:32S 29°52' E 031°02'0 0.0
2016-Sep-09 05:32S 29°52' E 031°02'0 0.0
2016-Sep-09 04:32S 29°52' E 031°02'0 0.0
2016-Sep-09 03:32S 29°52' E 031°02'0 0.0
2016-Sep-09 02:32S 29°52' E 031°02'0 0.0
2016-Sep-09 01:32S 29°52' E 031°02'0 0.0
2016-Sep-09 00:32S 29°52' E 031°02'0 0.0
2016-Sep-08 23:32S 29°52' E 031°02'0 0.0
2016-Sep-08 22:32S 29°52' E 031°02'0 0.0
2016-Sep-08 21:32S 29°52' E 031°02'0 0.0
2016-Sep-08 20:32S 29°52' E 031°02'0 0.0
2016-Sep-08 19:32S 29°52' E 031°02'0 0.0
2016-Sep-08 18:32S 29°52' E 031°02'0 0.0
2016-Sep-08 17:29S 29°52' E 031°02'0 0.0
2016-Sep-08 16:32S 29°52' E 031°02'0 0.0
2016-Sep-08 15:32S 29°52' E 031°02'0 0.0
2016-Sep-08 14:32S 29°52' E 031°02'0 0.0
2016-Sep-08 13:32S 29°52' E 031°02'0 0.0
2016-Sep-08 12:29S 29°52' E 031°02'0 0.0
2016-Sep-08 11:32S 29°52' E 031°02'0 0.0
2016-Sep-08 10:29S 29°52' E 031°02'0 0.0
2016-Sep-08 09:32S 29°52' E 031°02'0 0.0
2016-Sep-08 08:32S 29°52' E 031°02'0 0.0
2016-Sep-08 07:32S 29°52' E 031°02'0 0.0
2016-Sep-08 06:32S 29°52' E 031°02'0 0.0
2016-Sep-08 05:32S 29°52' E 031°02'0 0.0
2016-Sep-08 04:32S 29°52' E 031°02'0 0.0
2016-Sep-08 03:32S 29°52' E 031°02'0 0.0
2016-Sep-08 02:32S 29°52' E 031°02'0 0.0
2016-Sep-08 01:32S 29°52' E 031°02'0 0.0
2016-Sep-08 00:32S 29°52' E 031°02'0 0.0
2016-Sep-07 23:32S 29°52' E 031°02'0 0.0
2016-Sep-07 22:32S 29°52' E 031°02'0 0.0
2016-Sep-07 21:32S 29°52' E 031°02'0 0.0
2016-Sep-07 20:32S 29°52' E 031°02'0 0.0
2016-Sep-07 19:32S 29°52' E 031°02'0 0.0
2016-Sep-07 18:32S 29°52' E 031°02'0 0.0
2016-Sep-07 17:32S 29°52' E 031°02'0 0.0
2016-Sep-07 16:32S 29°52' E 031°02'0 0.0
2016-Sep-07 15:32S 29°52' E 031°02'0 0.0
2016-Sep-07 14:32S 29°52' E 031°02'0 0.0
2016-Sep-07 13:32S 29°52' E 031°02'0 0.0
2016-Sep-07 12:32S 29°52' E 031°02'0 0.0
2016-Sep-07 11:32S 29°52' E 031°02'0 0.0
2016-Sep-07 10:32S 29°52' E 031°02'0 0.0
2016-Sep-07 09:32S 29°52' E 031°02'0 0.0
2016-Sep-07 08:32S 29°52' E 031°02'0 0.0
2016-Sep-07 07:32S 29°52' E 031°02'0 0.0
2016-Sep-07 06:32S 29°52' E 031°02'0 0.0
2016-Sep-07 04:32S 29°52' E 031°02'0 0.0
2016-Sep-07 03:32S 29°52' E 031°02'0 0.0
2016-Sep-07 02:29S 29°52' E 031°02'0 0.0
2016-Sep-07 01:32S 29°52' E 031°02'0 0.0
2016-Sep-07 00:32S 29°52' E 031°02'0 0.0
2016-Sep-06 23:32S 29°52' E 031°02'0 0.0
2016-Sep-06 22:32S 29°52' E 031°02'0 0.0
2016-Sep-06 21:32S 29°52' E 031°02'0 0.0
2016-Sep-06 20:32S 29°52' E 031°02'0 0.0
2016-Sep-06 19:32S 29°52' E 031°02'0 0.0
2016-Sep-06 18:32S 29°52' E 031°02'0 0.0
2016-Sep-06 17:32S 29°52' E 031°02'0 0.0
2016-Sep-06 16:32S 29°52' E 031°02'0 0.0
2016-Sep-06 15:32S 29°52' E 031°02'0 0.0
2016-Sep-06 14:32S 29°52' E 031°02'0 0.0
2016-Sep-06 13:32S 29°52' E 031°02'0 0.0
2016-Sep-06 12:32S 29°52' E 031°02'0 0.0
2016-Sep-06 11:32S 29°52' E 031°02'0 0.0
2016-Sep-06 10:32S 29°52' E 031°02'0 0.0
2016-Sep-06 09:32S 29°52' E 031°02'0 0.0
2016-Sep-06 08:32S 29°52' E 031°02'0 0.0
2016-Sep-06 07:32S 29°52' E 031°02'0 0.0
2016-Sep-06 06:32S 29°52' E 031°02'0 0.0
2016-Sep-06 04:32S 29°52' E 031°02'0 0.0
2016-Sep-06 03:32S 29°52' E 031°02'0 0.0
2016-Sep-06 02:32S 29°52' E 031°02'0 0.0
2016-Sep-06 01:32S 29°52' E 031°02'0 0.0
2016-Sep-06 00:32S 29°52' E 031°02'0 0.0
2016-Sep-05 23:32S 29°52' E 031°02'0 0.0
2016-Sep-05 22:32S 29°52' E 031°02'0 0.0
2016-Sep-05 21:32S 29°52' E 031°02'0 0.0
2016-Sep-05 20:32S 29°52' E 031°02'0 0.0
2016-Sep-05 19:29S 29°52' E 031°02'0 0.0
2016-Sep-05 18:32S 29°52' E 031°02'0 0.0
2016-Sep-05 17:32S 29°52' E 031°02'0 0.0
2016-Sep-05 16:32S 29°52' E 031°02'0 0.0
2016-Sep-05 15:32S 29°52' E 031°02'0 0.0
2016-Sep-05 14:32S 29°52' E 031°02'0 0.0
2016-Sep-05 13:32S 29°52' E 031°02'0 0.0
2016-Sep-05 12:32S 29°52' E 031°02'  
Track history (hours):
 
Tides and Currents Weather Stations Pressure Air Temp Water Temp Dewpoint Dewpoint Depression Visibility Wind Speed Wind Dir Waves Ship Positions

Maersk Vallvik

Last reported at 2016-Sep-15 12:28 UTC. Time now 2016-Sep-30 08:23 UTC.
Position S 33°52' E 018°26'.
Warning: this ship's position is 14 days out of date.

Length 180 m; draft 10.6 m.

Type: Ship (hazmat cat A). MMSI: 564837000.

Date/timePositionNaut miles runAvg speedWind from/ knotsBaromVisibWave heightAir tempDewpointWater temp
2016-Sep-15 12:28S 33°52' E 018°26'0 0.0
2016-Sep-15 11:28S 33°52' E 018°26'2 0.3
2016-Sep-15 04:33S 33°51' E 018°24'4 3.6
2016-Sep-15 03:33S 33°55' E 018°26'0 0.0
2016-Sep-15 01:33S 33°55' E 018°26'0 0.0
2016-Sep-14 22:33S 33°55' E 018°26'0 0.0
2016-Sep-14 21:33S 33°55' E 018°26'0 0.0
2016-Sep-14 17:33S 33°55' E 018°26'0 0.0
2016-Sep-14 16:33S 33°55' E 018°26'0 0.0
2016-Sep-14 13:33S 33°55' E 018°26'0 0.0
2016-Sep-14 12:33S 33°55' E 018°26'0 0.0
2016-Sep-14 10:33S 33°55' E 018°26'0 0.0
2016-Sep-14 09:33S 33°55' E 018°26'0 0.0
2016-Sep-14 08:33S 33°55' E 018°26'0 0.0
2016-Sep-14 07:33S 33°55' E 018°26'0 0.0
2016-Sep-14 06:33S 33°55' E 018°26'0 0.0
2016-Sep-14 03:33S 33°55' E 018°26'0 0.0
2016-Sep-13 22:33S 33°55' E 018°26'0 0.0
2016-Sep-13 20:33S 33°55' E 018°26'0 0.0
2016-Sep-13 18:33S 33°55' E 018°26'0 0.0
2016-Sep-13 17:33S 33°55' E 018°26'0 0.0
2016-Sep-13 16:33S 33°55' E 018°26'2 0.5
2016-Sep-13 11:34S 33°52' E 018°25'67215.6
2016-Sep-11 16:33S 30°16' E 030°57'1817.9
2016-Sep-11 15:33S 30°01' E 031°07'9 9.3
2016-Sep-11 14:33S 29°52' E 031°03'1 0.8
2016-Sep-11 13:32S 29°52' E 031°02'0 0.0
2016-Sep-11 12:32S 29°52' E 031°02'0 0.0
2016-Sep-11 11:32S 29°52' E 031°02'0 0.0
2016-Sep-11 10:32S 29°52' E 031°02'0 0.0
2016-Sep-11 08:32S 29°52' E 031°02'0 0.0
2016-Sep-11 07:32S 29°52' E 031°02'0 0.0
2016-Sep-11 03:32S 29°52' E 031°02'0 0.0
2016-Sep-11 02:32S 29°52' E 031°02'0 0.0
2016-Sep-11 01:32S 29°52' E 031°02'0 0.0
2016-Sep-11 00:32S 29°52' E 031°02'0 0.0
2016-Sep-10 23:32S 29°52' E 031°02'0 0.0
2016-Sep-10 22:32S 29°52' E 031°02'0 0.0
2016-Sep-10 21:32S 29°52' E 031°02'0 0.0
2016-Sep-10 20:32S 29°52' E 031°02'0 0.0
2016-Sep-10 19:32S 29°52' E 031°02'0 0.0
2016-Sep-10 18:32S 29°52' E 031°02'0 0.0
2016-Sep-10 17:32S 29°52' E 031°02'0 0.0
2016-Sep-10 16:32S 29°52' E 031°02'0 0.0
2016-Sep-10 15:32S 29°52' E 031°02'0 0.0
2016-Sep-10 14:32S 29°52' E 031°02'0 0.0
2016-Sep-10 13:32S 29°52' E 031°02'0 0.0
2016-Sep-10 12:32S 29°52' E 031°02'0 0.0
2016-Sep-10 11:32S 29°52' E 031°02'0 0.0
2016-Sep-10 10:29S 29°52' E 031°02'0 0.0
2016-Sep-10 09:32S 29°52' E 031°02'0 0.0
2016-Sep-10 08:32S 29°52' E 031°02'0 0.0
2016-Sep-10 07:32S 29°52' E 031°02'0 0.0
2016-Sep-10 06:32S 29°52' E 031°02'0 0.0
2016-Sep-10 05:32S 29°52' E 031°02'0 0.0
2016-Sep-10 04:32S 29°52' E 031°02'0 0.0
2016-Sep-10 03:32S 29°52' E 031°02'0 0.0
2016-Sep-10 02:32S 29°52' E 031°02'0 0.0
2016-Sep-10 01:32S 29°52' E 031°02'0 0.0
2016-Sep-10 00:32S 29°52' E 031°02'0 0.0
2016-Sep-09 23:32S 29°52' E 031°02'0 0.0
2016-Sep-09 22:32S 29°52' E 031°02'0 0.0
2016-Sep-09 21:32S 29°52' E 031°02'0 0.0
2016-Sep-09 20:32S 29°52' E 031°02'0 0.0
2016-Sep-09 19:32S 29°52' E 031°02'0 0.0
2016-Sep-09 18:32S 29°52' E 031°02'0 0.0
2016-Sep-09 17:32S 29°52' E 031°02'0 0.0
2016-Sep-09 16:32S 29°52' E 031°02'0 0.0
2016-Sep-09 15:32S 29°52' E 031°02'0 0.0
2016-Sep-09 14:32S 29°52' E 031°02'0 0.0
2016-Sep-09 13:32S 29°52' E 031°02'0 0.0
2016-Sep-09 12:32S 29°52' E 031°02'0 0.0
2016-Sep-09 11:29S 29°52' E 031°02'0 0.0
2016-Sep-09 10:32S 29°52' E 031°02'0 0.0
2016-Sep-09 09:32S 29°52' E 031°02'0 0.0
2016-Sep-09 08:32S 29°52' E 031°02'0 0.0
2016-Sep-09 07:32S 29°52' E 031°02'0 0.0
2016-Sep-09 06:32S 29°52' E 031°02'0 0.0
2016-Sep-09 05:32S 29°52' E 031°02'0 0.0
2016-Sep-09 04:32S 29°52' E 031°02'0 0.0
2016-Sep-09 03:32S 29°52' E 031°02'0 0.0
2016-Sep-09 02:32S 29°52' E 031°02'0 0.0
2016-Sep-09 01:32S 29°52' E 031°02'0 0.0
2016-Sep-09 00:32S 29°52' E 031°02'0 0.0
2016-Sep-08 23:32S 29°52' E 031°02'0 0.0
2016-Sep-08 22:32S 29°52' E 031°02'0 0.0
2016-Sep-08 21:32S 29°52' E 031°02'0 0.0
2016-Sep-08 20:32S 29°52' E 031°02'0 0.0
2016-Sep-08 19:32S 29°52' E 031°02'0 0.0
2016-Sep-08 18:32S 29°52' E 031°02'0 0.0
2016-Sep-08 17:29S 29°52' E 031°02'0 0.0
2016-Sep-08 16:32S 29°52' E 031°02'0 0.0
2016-Sep-08 15:32S 29°52' E 031°02'0 0.0
2016-Sep-08 14:32S 29°52' E 031°02'0 0.0
2016-Sep-08 13:32S 29°52' E 031°02'0 0.0
2016-Sep-08 12:29S 29°52' E 031°02'0 0.0
2016-Sep-08 11:32S 29°52' E 031°02'0 0.0
2016-Sep-08 10:29S 29°52' E 031°02'0 0.0
2016-Sep-08 09:32S 29°52' E 031°02'0 0.0
2016-Sep-08 08:32S 29°52' E 031°02'0 0.0
2016-Sep-08 07:32S 29°52' E 031°02'0 0.0
2016-Sep-08 06:32S 29°52' E 031°02'0 0.0
2016-Sep-08 05:32S 29°52' E 031°02'0 0.0
2016-Sep-08 04:32S 29°52' E 031°02'0 0.0
2016-Sep-08 03:32S 29°52' E 031°02'0 0.0
2016-Sep-08 02:32S 29°52' E 031°02'0 0.0
2016-Sep-08 01:32S 29°52' E 031°02'0 0.0
2016-Sep-08 00:32S 29°52' E 031°02'0 0.0
2016-Sep-07 23:32S 29°52' E 031°02'0 0.0
2016-Sep-07 22:32S 29°52' E 031°02'0 0.0
2016-Sep-07 21:32S 29°52' E 031°02'0 0.0
2016-Sep-07 20:32S 29°52' E 031°02'0 0.0
2016-Sep-07 19:32S 29°52' E 031°02'0 0.0
2016-Sep-07 18:32S 29°52' E 031°02'0 0.0
2016-Sep-07 17:32S 29°52' E 031°02'0 0.0
2016-Sep-07 16:32S 29°52' E 031°02'0 0.0
2016-Sep-07 15:32S 29°52' E 031°02'0 0.0
2016-Sep-07 14:32S 29°52' E 031°02'0 0.0
2016-Sep-07 13:32S 29°52' E 031°02'0 0.0
2016-Sep-07 12:32S 29°52' E 031°02'0 0.0
2016-Sep-07 11:32S 29°52' E 031°02'0 0.0
2016-Sep-07 10:32S 29°52' E 031°02'0 0.0
2016-Sep-07 09:32S 29°52' E 031°02'0 0.0
2016-Sep-07 08:32S 29°52' E 031°02'0 0.0
2016-Sep-07 07:32S 29°52' E 031°02'0 0.0
2016-Sep-07 06:32S 29°52' E 031°02'0 0.0
2016-Sep-07 04:32S 29°52' E 031°02'0 0.0
2016-Sep-07 03:32S 29°52' E 031°02'0 0.0
2016-Sep-07 02:29S 29°52' E 031°02'0 0.0
2016-Sep-07 01:32S 29°52' E 031°02'0 0.0
2016-Sep-07 00:32S 29°52' E 031°02'0 0.0
2016-Sep-06 23:32S 29°52' E 031°02'0 0.0
2016-Sep-06 22:32S 29°52' E 031°02'0 0.0
2016-Sep-06 21:32S 29°52' E 031°02'0 0.0
2016-Sep-06 20:32S 29°52' E 031°02'0 0.0
2016-Sep-06 19:32S 29°52' E 031°02'0 0.0
2016-Sep-06 18:32S 29°52' E 031°02'0 0.0
2016-Sep-06 17:32S 29°52' E 031°02'0 0.0
2016-Sep-06 16:32S 29°52' E 031°02'0 0.0
2016-Sep-06 15:32S 29°52' E 031°02'0 0.0
2016-Sep-06 14:32S 29°52' E 031°02'0 0.0
2016-Sep-06 13:32S 29°52' E 031°02'0 0.0
2016-Sep-06 12:32S 29°52' E 031°02'0 0.0
2016-Sep-06 11:32S 29°52' E 031°02'0 0.0
2016-Sep-06 10:32S 29°52' E 031°02'0 0.0
2016-Sep-06 09:32S 29°52' E 031°02'0 0.0
2016-Sep-06 08:32S 29°52' E 031°02'0 0.0
2016-Sep-06 07:32S 29°52' E 031°02'0 0.0
2016-Sep-06 06:32S 29°52' E 031°02'0 0.0
2016-Sep-06 04:32S 29°52' E 031°02'0 0.0
2016-Sep-06 03:32S 29°52' E 031°02'0 0.0
2016-Sep-06 02:32S 29°52' E 031°02'0 0.0
2016-Sep-06 01:32S 29°52' E 031°02'0 0.0
2016-Sep-06 00:32S 29°52' E 031°02'0 0.0
2016-Sep-05 23:32S 29°52' E 031°02'0 0.0
2016-Sep-05 22:32S 29°52' E 031°02'0 0.0
2016-Sep-05 21:32S 29°52' E 031°02'0 0.0
2016-Sep-05 20:32S 29°52' E 031°02'0 0.0
2016-Sep-05 19:29S 29°52' E 031°02'0 0.0
2016-Sep-05 18:32S 29°52' E 031°02'0 0.0
2016-Sep-05 17:32S 29°52' E 031°02'0 0.0
2016-Sep-05 16:32S 29°52' E 031°02'0 0.0
2016-Sep-05 15:32S 29°52' E 031°02'0 0.0
2016-Sep-05 14:32S 29°52' E 031°02'0 0.0
2016-Sep-05 13:32S 29°52' E 031°02'0 0.0
2016-Sep-05 12:32S 29°52' E 031°02'  

Dump ship's entire track history